Time;durP1;ratioP1;P1;durP2;ratioP2;P2;SDS_P1;SDS_P2;PMS_P1;PMS_P2;Temp;Humidity;BMP_temperature;BMP_pressure;BME280_temperature;BME280_humidity;BME280_pressure;Samples;Min_cycle;Max_cycle;Signal;HPM_P1;HPM_P2
2021/12/19 00:00:55;;;;;;;12.63;6.53;;;;;;;6.35;91.05;101470.94;5091101;28;20040;-70
2021/12/19 00:08:49;;;;;;;16.45;6.32;;;;;;;6.35;91.09;101451.88;5082596;28;20040;-72
2021/12/19 00:11:16;;;;;;;16.70;6.35;;;;;;;6.33;91.42;101457.09;5078272;28;20051;-69
2021/12/19 00:13:42;;;;;;;12.65;6.30;;;;;;;6.34;90.84;101450.13;5090774;28;20028;-70
2021/12/19 00:16:08;;;;;;;17.73;7.72;;;;;;;6.34;90.76;101450.13;5072836;28;20394;-70
2021/12/19 00:18:34;;;;;;;17.33;6.40;;;;;;;6.29;91.13;101452.88;5086824;28;20031;-69
2021/12/19 00:20:59;;;;;;;19.88;7.18;;;;;;;6.28;91.55;101457.25;5088068;28;20016;-70
2021/12/19 00:23:26;;;;;;;13.32;6.43;;;;;;;6.29;90.80;101458.09;5088545;28;20044;-70
2021/12/19 00:25:52;;;;;;;17.15;7.35;;;;;;;6.30;91.66;101454.59;5070259;28;20036;-70
2021/12/19 00:28:17;;;;;;;17.55;8.73;;;;;;;6.30;91.00;101450.25;5066333;28;20048;-70
2021/12/19 00:30:43;;;;;;;16.90;7.32;;;;;;;6.29;91.04;101453.75;5085360;28;20024;-70
2021/12/19 00:33:08;;;;;;;20.90;6.70;;;;;;;6.29;91.32;101448.53;5069852;28;20049;-72
2021/12/19 00:35:33;;;;;;;15.27;6.88;;;;;;;6.26;91.43;101440.81;5090186;28;20611;-70
2021/12/19 00:37:59;;;;;;;17.23;7.55;;;;;;;6.26;91.31;101426.94;5079948;28;20385;-71
2021/12/19 00:40:24;;;;;;;16.48;6.65;;;;;;;6.28;91.08;101443.38;5072433;28;20035;-72
2021/12/19 00:43:02;;;;;;;21.45;8.43;;;;;;;6.28;91.17;101423.38;5088602;28;20509;-72
2021/12/19 00:45:32;;;;;;;21.45;6.95;;;;;;;6.29;91.05;101427.69;5091072;28;20032;-71
2021/12/19 00:47:58;;;;;;;20.65;7.38;;;;;;;6.32;90.85;101426.75;5070596;28;20494;-70
2021/12/19 00:50:24;;;;;;;22.52;8.15;;;;;;;6.30;91.20;101423.31;5088619;28;20513;-71
2021/12/19 00:52:50;;;;;;;12.80;6.35;;;;;;;6.29;91.17;101419.88;5089822;28;20638;-72
2021/12/19 00:55:17;;;;;;;21.98;7.68;;;;;;;6.32;91.38;101415.50;5071757;28;20035;-72
2021/12/19 00:57:44;;;;;;;12.43;6.38;;;;;;;6.31;90.83;101427.66;5090337;28;20035;-70
2021/12/19 01:00:12;;;;;;;19.98;7.85;;;;;;;6.30;91.01;101415.50;5090815;28;20016;-71
2021/12/19 01:02:38;;;;;;;20.00;8.20;;;;;;;6.29;91.07;101417.28;5071230;28;20093;-70
2021/12/19 01:05:04;;;;;;;19.85;7.97;;;;;;;6.27;91.14;101416.47;5088554;28;20568;-70
2021/12/19 01:07:30;;;;;;;17.63;7.00;;;;;;;6.28;91.34;101419.94;5087426;28;20450;-70
2021/12/19 01:09:55;;;;;;;16.58;7.00;;;;;;;6.28;91.52;101419.94;5085065;28;20485;-70
2021/12/19 01:12:21;;;;;;;28.10;8.68;;;;;;;6.25;90.71;101407.84;5089271;28;20058;-70
2021/12/19 01:14:46;;;;;;;20.25;8.13;;;;;;;6.30;91.17;101413.78;5068882;28;20081;-70
2021/12/19 01:17:12;;;;;;;26.33;8.50;;;;;;;6.27;91.28;101407.81;5089457;28;20028;-69
2021/12/19 01:19:38;;;;;;;18.98;6.72;;;;;;;6.29;90.92;101413.81;5079981;28;20024;-70
2021/12/19 01:22:04;;;;;;;16.27;7.45;;;;;;;6.26;90.95;101406.94;5068972;28;20037;-70
2021/12/19 01:24:30;;;;;;;14.63;7.25;;;;;;;6.28;91.21;101404.31;5088436;28;20028;-70
2021/12/19 01:26:55;;;;;;;23.08;9.35;;;;;;;6.27;90.79;101402.63;5089664;28;20020;-72
2021/12/19 01:29:21;;;;;;;17.05;7.90;;;;;;;6.27;90.86;101411.28;5089254;28;20448;-70
2021/12/19 01:31:46;;;;;;;18.80;6.53;;;;;;;6.26;90.75;101403.50;5065445;28;20052;-69
2021/12/19 01:34:12;;;;;;;14.75;7.28;;;;;;;6.26;90.65;101406.09;5087040;28;20089;-70
2021/12/19 01:36:40;;;;;;;14.23;7.03;;;;;;;6.25;90.82;101400.03;5088957;28;20142;-70
2021/12/19 01:39:05;;;;;;;13.80;6.78;;;;;;;6.25;90.48;101405.25;5089483;28;20016;-70
2021/12/19 01:41:31;;;;;;;13.73;6.22;;;;;;;6.27;90.56;101400.00;5088303;28;20401;-67
2021/12/19 01:43:56;;;;;;;14.48;6.07;;;;;;;6.22;90.17;101397.53;5062437;28;20033;-70
2021/12/19 01:46:21;;;;;;;27.05;6.93;;;;;;;6.23;89.70;101387.94;5061285;28;20028;-69
2021/12/19 01:48:47;;;;;;;16.27;6.60;;;;;;;6.26;89.20;101386.09;5079507;28;20036;-71
2021/12/19 01:51:12;;;;;;;13.80;5.85;;;;;;;6.26;88.95;101393.91;5081554;28;20145;-69
2021/12/19 01:53:37;;;;;;;19.30;6.28;;;;;;;6.29;88.35;101380.81;5087669;28;20089;-70
2021/12/19 01:56:05;;;;;;;14.75;6.35;;;;;;;6.29;88.51;101382.56;5071225;28;20176;-69
2021/12/19 01:58:31;;;;;;;15.10;6.47;;;;;;;6.29;88.84;101375.59;5088979;28;20040;-69
2021/12/19 02:00:57;;;;;;;11.23;6.05;;;;;;;6.25;89.77;101368.78;5088588;28;20043;-69
2021/12/19 02:03:24;;;;;;;17.70;6.78;;;;;;;6.22;89.94;101373.22;5087922;28;20024;-70
2021/12/19 02:05:50;;;;;;;18.40;6.97;;;;;;;6.20;90.61;101372.44;5069439;28;20036;-68
2021/12/19 02:08:17;;;;;;;17.58;7.68;;;;;;;6.17;91.22;101369.94;5087794;28;20121;-71
2021/12/19 02:10:42;;;;;;;15.85;7.60;;;;;;;6.15;91.36;101363.91;5087693;28;20037;-67
2021/12/19 02:13:10;;;;;;;19.70;7.70;;;;;;;6.14;91.31;101365.66;5088038;28;20081;-69
2021/12/19 02:15:37;;;;;;;20.23;8.68;;;;;;;6.11;91.48;101360.53;5088249;28;20104;-69
2021/12/19 02:18:07;;;;;;;16.80;7.80;;;;;;;6.07;91.64;101370.19;5088780;28;20048;-69
2021/12/19 02:20:36;;;;;;;14.65;7.60;;;;;;;6.07;91.65;101346.78;5068790;28;20024;-68
2021/12/19 02:23:03;;;;;;;18.58;7.75;;;;;;;6.08;90.90;101355.44;5087095;28;20404;-69
2021/12/19 02:25:28;;;;;;;18.48;7.80;;;;;;;6.09;91.26;101343.28;5087841;28;20028;-70
2021/12/19 02:27:55;;;;;;;16.48;7.00;;;;;;;6.07;91.03;101344.16;5088187;28;20112;-69
2021/12/19 02:30:20;;;;;;;19.75;7.78;;;;;;;6.07;91.33;101336.34;5084878;28;20020;-70
2021/12/19 02:32:46;;;;;;;19.65;7.57;;;;;;;6.04;91.40;101331.28;5081821;28;20433;-69
2021/12/19 02:35:17;;;;;;;14.90;7.80;;;;;;;6.04;91.49;101323.44;5086827;28;20107;-69
2021/12/19 02:38:16;;;;;;;16.58;6.88;;;;;;;6.03;91.12;101313.91;5083943;28;20489;-69
2021/12/19 02:48:51;;;;;;;25.88;7.07;;;;;;;6.03;90.69;101293.09;5087172;28;20031;-69
2021/12/19 02:51:16;;;;;;;17.40;6.75;;;;;;;5.98;90.73;101295.00;5085157;28;20025;-68
2021/12/19 02:53:43;;;;;;;12.75;5.97;;;;;;;6.01;90.49;101292.31;5085900;28;20036;-71
2021/12/19 02:56:12;;;;;;;17.08;6.75;;;;;;;6.02;89.94;101293.16;5059657;28;20493;-69
2021/12/19 02:58:40;;;;;;;23.08;7.03;;;;;;;5.98;90.18;101291.56;5066019;28;20093;-69
2021/12/19 03:01:09;;;;;;;19.30;6.50;;;;;;;5.97;90.04;101295.91;5087348;28;20028;-69
2021/12/19 03:03:34;;;;;;;14.25;6.50;;;;;;;5.92;90.22;101274.34;5084339;28;20032;-71
2021/12/19 03:05:59;;;;;;;20.25;7.03;;;;;;;5.92;90.33;101274.34;5087685;28;20491;-70
2021/12/19 03:08:25;;;;;;;15.98;6.95;;;;;;;5.92;90.40;101270.88;5067013;28;20191;-70
2021/12/19 03:18:43;;;;;;;11.90;6.13;;;;;;;5.92;90.25;101261.34;5082933;28;20082;-70
2021/12/19 03:21:13;;;;;;;15.15;6.53;;;;;;;5.90;90.24;101251.88;5089594;28;20095;-71
2021/12/19 03:23:38;;;;;;;14.40;6.18;;;;;;;5.90;90.18;101262.28;5069236;28;20082;-69
2021/12/19 03:26:04;;;;;;;14.40;5.82;;;;;;;5.85;90.35;101254.59;5088722;28;20028;-71
2021/12/19 03:28:29;;;;;;;21.73;7.32;;;;;;;5.84;90.46;101252.91;5093387;22;20082;-87
2021/12/19 03:30:55;;;;;;;17.00;7.38;;;;;;;5.82;90.80;101254.69;5056030;28;20130;-85
2021/12/19 03:33:23;;;;;;;19.02;6.53;;;;;;;5.79;90.79;101244.41;5066442;28;20021;-86
2021/12/19 03:35:52;;;;;;;13.13;6.72;;;;;;;5.77;90.56;101241.81;5055481;28;20040;-87
2021/12/19 03:38:18;;;;;;;21.55;8.85;;;;;;;5.78;89.99;101240.94;5066421;28;20037;-86
2021/12/19 03:41:07;;;;;;;16.25;6.55;;;;;;;5.80;89.57;101243.50;5055863;28;20032;-86
2021/12/19 03:43:35;;;;;;;12.15;5.40;;;;;;;5.75;89.52;101243.63;5061134;28;20175;-87
2021/12/19 03:46:03;;;;;;;14.68;5.55;;;;;;;5.73;89.78;101244.59;5067412;28;20029;-86
2021/12/19 03:48:29;;;;;;;11.65;5.22;;;;;;;5.72;89.17;101238.53;5062549;28;20060;-86
2021/12/19 03:51:14;;;;;;;16.05;5.65;;;;;;;5.72;89.01;101216.88;5064571;28;20032;-86
2021/12/19 03:53:46;;;;;;;14.10;5.30;;;;;;;5.68;89.26;101213.50;5055903;28;20036;-88
2021/12/19 03:56:14;;;;;;;13.25;5.15;;;;;;;5.58;89.19;101209.47;5053063;28;20466;-89
2021/12/19 03:58:43;;;;;;;15.90;4.82;;;;;;;5.54;89.09;101194.88;5054523;28;20041;-88
2021/12/19 04:01:09;;;;;;;10.68;4.85;;;;;;;5.50;88.99;101203.69;5055177;28;20086;-88
2021/12/19 04:03:52;;;;;;;11.05;4.25;;;;;;;5.42;88.78;101192.66;5054308;28;20047;-88
2021/12/19 04:06:20;;;;;;;14.65;5.60;;;;;;;5.35;88.98;101181.59;5056802;28;20028;-88
2021/12/19 04:08:48;;;;;;;16.50;5.70;;;;;;;5.30;89.19;101194.75;5057713;28;20033;-87
2021/12/19 04:11:14;;;;;;;15.75;5.03;;;;;;;5.21;89.49;101184.59;5053123;28;20454;-88
2021/12/19 04:13:47;;;;;;;12.52;5.72;;;;;;;5.13;89.76;101186.59;5040440;28;20041;-87
2021/12/19 04:16:12;;;;;;;15.93;5.75;;;;;;;5.06;89.96;101191.13;5041793;28;20129;-87
2021/12/19 04:18:45;;;;;;;24.15;7.03;;;;;;;5.00;90.22;101196.47;5039021;28;20041;-87
2021/12/19 04:21:11;;;;;;;16.17;5.90;;;;;;;4.95;90.63;101200.13;5053176;28;20052;-85
2021/12/19 04:23:38;;;;;;;15.00;6.25;;;;;;;4.92;90.62;101203.66;5064232;28;20040;-88
2021/12/19 04:26:03;;;;;;;12.60;6.68;;;;;;;4.91;90.27;101216.72;5065971;28;20029;-85
2021/12/19 04:28:29;;;;;;;14.75;6.13;;;;;;;4.89;90.57;101208.09;5054603;28;20052;-88
2021/12/19 04:30:54;;;;;;;15.43;6.43;;;;;;;4.89;90.51;101211.53;5060175;28;20037;-90
2021/12/19 04:33:22;;;;;;;12.55;6.15;;;;;;;4.90;90.34;101195.06;5043795;28;20492;-88
2021/12/19 04:36:01;;;;;;;14.32;6.35;;;;;;;4.87;90.62;101184.75;5037637;28;20375;-87
2021/12/19 05:15:33;;;;;;;14.00;7.72;;;;;;;4.88;90.40;101175.22;5012436;28;20053;-87
2021/12/19 05:18:04;;;;;;;15.77;8.07;;;;;;;4.89;90.14;101171.72;5011957;28;20033;-87
2021/12/19 05:20:33;;;;;;;18.67;8.43;;;;;;;4.88;90.18;101164.81;5032239;28;20040;-87
2021/12/19 05:23:21;;;;;;;;;;;;;;;4.90;89.94;101156.09;5031363;28;20037;-87
2021/12/19 05:25:54;;;;;;;18.83;7.43;;;;;;;4.91;90.02;101157.78;5041514;28;19912;-88
2021/12/19 05:28:20;;;;;;;19.65;8.38;;;;;;;4.96;89.94;101163.69;5050634;28;20041;-87
2021/12/19 05:30:51;;;;;;;20.33;8.35;;;;;;;4.94;89.77;101159.44;5032358;28;20025;-88
2021/12/19 05:33:17;;;;;;;15.52;7.68;;;;;;;4.95;89.31;101162.00;5033421;28;20029;-88
2021/12/19 05:46:39;;;;;;;16.80;7.28;;;;;;;5.00;89.59;101165.28;5037856;28;20039;-87
2021/12/19 05:49:06;;;;;;;20.88;7.80;;;;;;;4.98;89.97;101159.31;5035457;28;20493;-86
2021/12/19 05:51:35;;;;;;;13.80;7.50;;;;;;;4.99;89.56;101158.41;5031173;28;20110;-85
2021/12/19 05:54:01;;;;;;;18.17;7.22;;;;;;;4.96;89.66;101158.47;5030406;28;20359;-88
2021/12/19 05:56:34;;;;;;;16.45;6.82;;;;;;;4.95;89.67;101148.16;5029896;28;20041;-87
2021/12/19 05:59:01;;;;;;;12.93;7.13;;;;;;;4.98;89.50;101150.66;5035074;28;20029;-87
2021/12/19 06:01:27;;;;;;;15.13;7.00;;;;;;;4.96;90.24;101152.44;5035121;28;20545;-87
2021/12/19 06:03:55;;;;;;;16.98;7.68;;;;;;;4.97;89.64;101159.34;5033883;28;20045;-87
2021/12/19 06:06:28;;;;;;;18.48;7.72;;;;;;;5.02;89.90;101171.31;5053055;28;20112;-88
2021/12/19 06:08:56;;;;;;;14.68;7.18;;;;;;;5.00;89.83;101165.28;5023979;28;20038;-88
2021/12/19 06:11:22;;;;;;;13.93;6.90;;;;;;;5.04;89.40;101163.44;5038922;28;20055;-87
2021/12/19 06:13:50;;;;;;;15.20;7.78;;;;;;;5.02;89.51;101175.66;5031216;28;20120;-87
2021/12/19 06:16:15;;;;;;;14.73;6.95;;;;;;;4.98;90.13;101182.69;5041280;28;20137;-88
2021/12/19 06:18:41;;;;;;;14.00;6.65;;;;;;;5.00;89.80;101169.66;5032783;28;20021;-87
2021/12/19 06:21:06;;;;;;;11.75;6.57;;;;;;;5.03;89.66;101167.81;5031551;28;20027;-87
2021/12/19 06:23:33;;;;;;;15.40;6.95;;;;;;;5.05;90.11;101167.78;5031647;28;20037;-87
2021/12/19 06:25:59;;;;;;;12.20;6.72;;;;;;;5.05;89.72;101158.22;5036200;28;20115;-87
2021/12/19 06:28:26;;;;;;;12.05;6.70;;;;;;;5.11;89.54;101151.97;5021147;28;20070;-88
2021/12/19 06:30:54;;;;;;;12.57;6.57;;;;;;;5.12;89.50;101163.22;5030426;28;20033;-88
2021/12/19 06:33:19;;;;;;;12.73;6.63;;;;;;;5.10;89.35;101155.47;5036503;28;20060;-86
2021/12/19 06:35:45;;;;;;;14.88;6.78;;;;;;;5.11;89.18;101170.16;5040848;28;20037;-87
2021/12/19 06:38:12;;;;;;;12.95;5.80;;;;;;;5.09;89.62;101152.03;5038696;28;20499;-86
2021/12/19 06:40:38;;;;;;;12.60;7.00;;;;;;;5.15;89.88;101140.59;5042192;28;20119;-87
2021/12/19 06:43:03;;;;;;;15.48;6.93;;;;;;;5.14;89.11;101157.09;5035430;28;20123;-87
2021/12/19 06:45:29;;;;;;;14.05;6.20;;;;;;;5.10;89.13;101140.72;5046446;28;20025;-87
2021/12/19 06:47:55;;;;;;;11.57;5.85;;;;;;;5.09;88.85;101146.84;5030772;28;20038;-87
2021/12/19 06:50:20;;;;;;;14.65;6.40;;;;;;;5.10;89.44;101143.34;5039308;28;20510;-87
2021/12/19 06:52:47;;;;;;;11.15;6.20;;;;;;;5.13;89.30;101149.34;5039939;28;20113;-87
2021/12/19 06:55:15;;;;;;;12.77;5.93;;;;;;;5.15;89.50;101145.78;5035515;28;20089;-85
2021/12/19 06:57:41;;;;;;;9.40;5.88;;;;;;;5.18;89.24;101143.09;5047634;28;20060;-87
2021/12/19 07:00:17;;;;;;;13.27;6.30;;;;;;;5.22;88.73;101133.44;5051209;28;20021;-86
2021/12/19 07:02:42;;;;;;;11.60;5.75;;;;;;;5.23;89.13;101128.22;5036865;28;20045;-87
2021/12/19 07:05:09;;;;;;;9.68;5.45;;;;;;;5.24;88.91;101134.28;5046054;28;20120;-86
2021/12/19 07:07:36;;;;;;;13.93;6.50;;;;;;;5.25;88.76;101135.97;5046527;28;20123;-87
2021/12/19 07:10:03;;;;;;;10.52;5.78;;;;;;;5.25;88.98;101117.75;5047494;28;20105;-88
2021/12/19 07:12:31;;;;;;;9.18;5.70;;;;;;;5.26;88.77;101120.31;5044977;28;20045;-87
2021/12/19 07:14:58;;;;;;;12.73;6.38;;;;;;;5.28;89.05;101122.88;5066421;28;20034;-88
2021/12/19 07:17:28;;;;;;;9.95;5.43;;;;;;;5.30;88.74;101127.13;5056203;28;20045;-87
2021/12/19 07:19:56;;;;;;;8.85;5.47;;;;;;;5.33;88.91;101121.81;5057849;28;20026;-88
2021/12/19 07:22:24;;;;;;;9.32;5.22;;;;;;;5.36;88.41;101115.66;5056188;28;20033;-85
2021/12/19 07:24:52;;;;;;;10.35;5.78;;;;;;;5.37;88.29;101104.34;5057841;28;20037;-88
2021/12/19 07:27:28;;;;;;;10.05;5.10;;;;;;;5.39;88.81;101101.72;5057655;28;20025;-88
2021/12/19 07:30:25;;;;;;;10.07;5.68;;;;;;;5.40;88.91;101100.81;5056380;28;20072;-88
2021/12/19 07:32:54;;;;;;;10.05;5.45;;;;;;;5.36;88.79;101102.66;5038053;28;20053;-88
2021/12/19 07:35:21;;;;;;;;;;;;;;;5.38;88.57;101103.47;5037438;28;20052;-87
2021/12/19 07:37:49;;;;;;;9.68;5.40;;;;;;;5.39;89.10;101102.56;5035396;28;19915;-87
2021/12/19 07:40:18;;;;;;;9.82;5.38;;;;;;;5.38;89.39;101100.88;5027196;28;20380;-89
2021/12/19 07:42:47;;;;;;;10.35;5.00;;;;;;;5.41;89.12;101092.09;5027241;28;20062;-88
2021/12/19 07:45:14;;;;;;;9.55;5.45;;;;;;;5.41;89.19;101092.94;5022820;28;20026;-88
2021/12/19 07:47:41;;;;;;;9.35;5.07;;;;;;;5.37;89.34;101091.34;5013969;28;20037;-88
2021/12/19 07:50:08;;;;;;;10.80;5.70;;;;;;;5.39;89.67;101084.38;5015666;28;20529;-89
2021/12/19 07:52:34;;;;;;;10.48;5.00;;;;;;;5.42;89.33;101080.81;5007140;28;20060;-89
2021/12/19 07:55:00;;;;;;;17.48;6.03;;;;;;;5.39;89.90;101086.97;5022827;28;20089;-88
2021/12/19 07:57:25;;;;;;;9.20;5.80;;;;;;;5.42;89.95;101105.09;5046776;28;20449;-89
2021/12/19 07:59:54;;;;;;;12.32;5.90;;;;;;;5.41;90.44;101089.50;5053182;28;20147;-89
2021/12/19 08:02:27;;;;;;;17.05;8.63;;;;;;;5.43;90.01;101088.56;5055084;28;20033;-87
2021/12/19 08:04:52;;;;;;;14.20;5.22;;;;;;;5.42;89.96;101097.28;5055735;28;20041;-88
2021/12/19 08:07:23;;;;;;;14.15;6.70;;;;;;;5.44;90.51;101103.25;5052482;28;20033;-88
2021/12/19 08:12:49;;;;;;;8.55;4.97;;;;;;;5.47;89.68;101084.13;5020166;28;20116;-88
2021/12/19 08:15:17;;;;;;;10.20;5.22;;;;;;;5.52;89.40;101077.00;5038007;28;20474;-90
2021/12/19 08:17:50;;;;;;;10.43;5.07;;;;;;;5.53;89.84;101076.97;5034488;28;20045;-87
2021/12/19 08:20:18;;;;;;;11.07;6.22;;;;;;;5.54;89.83;101067.41;5034175;28;20033;-88
2021/12/19 08:22:49;;;;;;;8.73;5.07;;;;;;;5.57;89.63;101067.31;5026750;28;20037;-88
2021/12/19 08:25:37;;;;;;;9.57;4.78;;;;;;;5.57;89.70;101060.34;5048915;28;20034;-88
2021/12/19 08:28:16;;;;;;;8.60;4.45;;;;;;;5.59;89.63;101063.72;5036740;28;20030;-89
2021/12/19 08:30:46;;;;;;;9.33;4.53;;;;;;;5.58;89.74;101071.59;5036927;28;20092;-86
2021/12/19 08:33:14;;;;;;;11.25;5.10;;;;;;;5.57;89.65;101047.34;5034446;28;20345;-88
2021/12/19 08:35:40;;;;;;;9.70;5.30;;;;;;;5.59;89.87;101058.53;5032445;28;20041;-87
2021/12/19 08:38:09;;;;;;;10.93;5.18;;;;;;;5.58;89.25;101042.97;5034547;28;20084;-88
2021/12/19 08:40:34;;;;;;;15.20;6.53;;;;;;;5.58;89.44;101043.81;5033636;28;20037;-87
2021/12/19 08:43:04;;;;;;;11.50;5.47;;;;;;;5.58;89.39;101043.81;5032484;28;20064;-88
2021/12/19 08:45:33;;;;;;;11.20;4.57;;;;;;;5.59;89.24;101040.31;5032626;28;20045;-87
2021/12/19 08:48:03;;;;;;;10.52;5.20;;;;;;;5.60;89.45;101043.78;5034065;28;20079;-89
2021/12/19 08:50:29;;;;;;;7.55;4.18;;;;;;;5.58;89.03;101043.81;5035265;28;20029;-88
2021/12/19 08:52:57;;;;;;;7.60;3.83;;;;;;;5.57;88.96;101044.75;5014706;28;20137;-89
2021/12/19 08:55:22;;;;;;;14.93;4.57;;;;;;;5.63;89.41;101037.63;5014154;28;20328;-89
2021/12/19 08:57:48;;;;;;;8.23;4.43;;;;;;;5.63;89.40;101038.47;5013954;28;21303;-88
2021/12/19 09:00:14;;;;;;;12.23;4.72;;;;;;;5.63;89.51;101025.44;5015483;28;20168;-88
2021/12/19 09:02:49;;;;;;;11.60;4.57;;;;;;;5.65;89.18;101035.81;5016997;28;20045;-88
2021/12/19 09:05:22;;;;;;;12.43;4.75;;;;;;;5.66;89.09;101037.50;4981953;28;20061;-88
2021/12/19 09:07:50;;;;;;;10.18;4.68;;;;;;;5.65;88.96;101041.88;5032300;28;20051;-88
2021/12/19 09:10:16;;;;;;;10.95;5.20;;;;;;;5.68;88.98;101030.53;5030942;28;20086;-89
2021/12/19 09:12:42;;;;;;;15.38;5.47;;;;;;;5.70;88.61;101032.16;5033411;28;20088;-89
2021/12/19 09:15:08;;;;;;;11.10;5.05;;;;;;;5.71;88.87;101028.66;5034318;28;20084;-88
2021/12/19 09:17:34;;;;;;;9.88;5.30;;;;;;;5.72;89.02;101024.31;5041332;28;20030;-88
2021/12/19 09:19:59;;;;;;;8.77;4.55;;;;;;;5.74;88.65;101028.53;5014923;28;20041;-88
2021/12/19 09:22:25;;;;;;;9.02;5.18;;;;;;;5.75;88.46;101006.84;5032907;28;20041;-88
2021/12/19 09:24:50;;;;;;;7.32;4.47;;;;;;;5.76;88.30;101020.69;5034518;28;20045;-88
2021/12/19 09:27:21;;;;;;;8.20;4.68;;;;;;;5.74;88.65;101007.72;5033377;28;20026;-89
2021/12/19 09:29:54;;;;;;;10.80;4.78;;;;;;;5.78;88.43;101018.88;5030815;28;20037;-88
2021/12/19 09:32:20;;;;;;;8.98;5.18;;;;;;;5.75;88.40;101004.22;5032426;28;20029;-90
2021/12/19 09:34:51;;;;;;;10.63;4.93;;;;;;;5.79;88.59;100994.56;5032315;28;20038;-88
2021/12/19 09:37:17;;;;;;;11.27;5.28;;;;;;;5.80;88.34;101009.25;5031763;28;20045;-89
2021/12/19 09:39:42;;;;;;;8.13;4.90;;;;;;;5.81;88.38;100995.34;5030557;28;20052;-83
2021/12/19 09:42:10;;;;;;;9.18;4.65;;;;;;;5.81;87.87;101000.53;5032548;28;20021;-88
2021/12/19 09:44:40;;;;;;;10.20;4.70;;;;;;;5.85;87.36;100999.53;5033396;28;20040;-89
2021/12/19 09:47:08;;;;;;;10.45;4.95;;;;;;;5.86;87.49;100989.97;5030690;28;20041;-89
2021/12/19 09:49:34;;;;;;;10.52;4.53;;;;;;;5.88;87.39;100991.63;5040353;28;20515;-89
2021/12/19 09:52:02;;;;;;;14.18;5.40;;;;;;;5.90;87.38;100975.97;5050930;28;20033;-87
2021/12/19 09:54:28;;;;;;;7.25;4.47;;;;;;;5.98;86.95;100984.38;5051272;28;20112;-89
2021/12/19 09:56:54;;;;;;;9.40;4.70;;;;;;;5.96;87.14;100971.38;5050507;28;20036;-88
2021/12/19 09:59:22;;;;;;;9.85;4.30;;;;;;;5.99;86.63;100967.84;5048518;28;20120;-90
2021/12/19 10:01:51;;;;;;;16.17;4.97;;;;;;;5.98;86.70;100972.19;5023880;28;20480;-89
2021/12/19 10:04:33;;;;;;;10.40;5.53;;;;;;;5.99;86.43;100973.03;5030414;28;20037;-88
2021/12/19 10:07:20;;;;;;;11.80;5.20;;;;;;;6.00;86.23;100964.31;5031812;28;20398;-88
2021/12/19 10:10:24;;;;;;;14.15;5.38;;;;;;;6.04;85.85;100973.69;5034424;28;20024;-88
2021/12/19 10:13:00;;;;;;;9.30;4.93;;;;;;;6.07;85.71;100963.19;5031907;28;20115;-88
2021/12/19 10:15:32;;;;;;;12.85;5.38;;;;;;;6.07;85.88;100953.59;5030138;28;20473;-90
2021/12/19 10:18:02;;;;;;;12.60;5.38;;;;;;;6.04;86.04;100961.56;5031943;28;20135;-87
2021/12/19 10:20:44;;;;;;;8.07;4.60;;;;;;;6.04;86.09;100948.53;5031542;28;20036;-90
2021/12/19 10:23:16;;;;;;;11.25;5.40;;;;;;;6.04;86.39;100940.75;5033199;28;20033;-90
2021/12/19 10:25:53;;;;;;;9.00;4.53;;;;;;;6.02;86.14;100926.91;5034521;28;20110;-89
2021/12/19 10:28:19;;;;;;;12.05;5.32;;;;;;;6.07;85.94;100926.72;5014629;28;20037;-88
2021/12/19 10:30:46;;;;;;;12.88;5.65;;;;;;;6.10;86.01;100930.97;5000599;28;20528;-88
2021/12/19 10:33:19;;;;;;;9.75;4.40;;;;;;;6.09;86.02;100935.34;5011469;28;20109;-88
2021/12/19 10:35:51;;;;;;;10.95;5.30;;;;;;;6.09;85.94;100924.94;5001129;28;20498;-91
2021/12/19 10:38:45;;;;;;;10.27;5.07;;;;;;;6.12;86.33;100908.31;4991535;28;20105;-89
2021/12/19 10:41:16;;;;;;;14.52;5.25;;;;;;;6.14;86.26;100907.38;4979158;28;20109;-89
2021/12/19 10:43:58;;;;;;;10.27;4.68;;;;;;;6.15;85.70;100903.84;4994482;28;20256;-89
2021/12/19 10:46:36;;;;;;;11.70;5.03;;;;;;;6.11;85.83;100917.06;4994635;28;20196;-89
2021/12/19 10:49:02;;;;;;;13.07;4.53;;;;;;;6.09;86.21;100879.84;5002727;28;20030;-87
2021/12/19 10:51:30;;;;;;;11.23;5.22;;;;;;;6.08;86.02;100897.19;5012048;28;20141;-89
2021/12/19 10:54:01;;;;;;;9.85;4.47;;;;;;;6.12;86.41;100904.00;5009900;28;20053;-88
2021/12/19 10:56:29;;;;;;;13.32;4.80;;;;;;;6.13;85.98;100905.69;5013522;28;20406;-88
2021/12/19 10:59:04;;;;;;;10.35;4.80;;;;;;;6.12;86.23;100874.47;5023582;28;20041;-88
2021/12/19 11:01:41;;;;;;;10.13;5.53;;;;;;;6.12;86.54;100875.34;5029344;28;20043;-87
2021/12/19 11:04:23;;;;;;;11.57;5.28;;;;;;;6.10;86.26;100879.75;5029828;28;20029;-87
2021/12/19 11:06:54;;;;;;;11.70;5.03;;;;;;;6.14;86.53;100883.09;5028909;28;20141;-87
2021/12/19 11:09:31;;;;;;;11.32;4.80;;;;;;;6.14;86.12;100888.28;5034067;28;20090;-88
2021/12/19 11:11:57;;;;;;;9.90;4.53;;;;;;;6.18;85.44;100889.88;5042373;28;20044;-87
2021/12/19 11:14:39;;;;;;;12.50;5.45;;;;;;;6.19;86.13;100869.00;5029845;28;20033;-88
2021/12/19 11:17:10;;;;;;;10.73;4.70;;;;;;;6.22;85.19;100878.41;5029040;28;20040;-86
2021/12/19 11:19:40;;;;;;;13.10;4.80;;;;;;;6.27;84.87;100855.66;5030959;28;20033;-87
2021/12/19 11:22:06;;;;;;;11.52;4.95;;;;;;;6.30;85.13;100856.41;5034310;28;20104;-88
2021/12/19 11:24:37;;;;;;;9.65;4.72;;;;;;;6.29;84.83;100846.03;5051641;28;20061;-88
2021/12/19 11:27:09;;;;;;;12.02;4.88;;;;;;;6.30;84.93;100847.72;5053113;28;20422;-87
2021/12/19 11:29:46;;;;;;;11.35;4.60;;;;;;;6.32;84.55;100838.09;5037564;28;20049;-87
2021/12/19 11:32:26;;;;;;;10.60;3.50;;;;;;;6.32;84.52;100843.31;5029167;28;20119;-86
2021/12/19 11:34:56;;;;;;;8.32;4.03;;;;;;;6.36;84.36;100839.66;5034291;28;20037;-85
2021/12/19 11:37:57;;;;;;;10.60;3.63;;;;;;;6.37;84.08;100836.13;5033801;28;20060;-86
2021/12/19 11:40:31;;;;;;;11.75;3.88;;;;;;;6.36;84.32;100817.97;5056818;28;20489;-86
2021/12/19 11:43:05;;;;;;;10.40;4.53;;;;;;;6.36;84.28;100824.03;5035725;28;20485;-86
2021/12/19 11:45:57;;;;;;;6.88;3.53;;;;;;;6.37;83.84;100828.31;5053804;28;20119;-86
2021/12/19 11:48:34;;;;;;;8.00;3.58;;;;;;;6.37;84.05;100822.28;5022070;28;20128;-89
2021/12/19 11:51:00;;;;;;;8.02;3.60;;;;;;;6.39;84.19;100804.84;5036591;28;20030;-86
2021/12/19 11:53:30;;;;;;;8.50;3.65;;;;;;;6.38;83.78;100805.72;5027932;28;20033;-87
2021/12/19 11:56:11;;;;;;;14.27;3.20;;;;;;;6.42;83.65;100799.50;5034971;28;20103;-86
2021/12/19 11:58:49;;;;;;;6.95;2.88;;;;;;;6.43;83.19;100809.84;5034775;28;20034;-86
2021/12/19 12:01:42;;;;;;;6.28;2.53;;;;;;;6.48;83.15;100820.06;5034953;28;20108;-87
2021/12/19 12:04:19;;;;;;;6.07;2.40;;;;;;;6.50;82.58;100787.00;5032164;28;20033;-86
2021/12/19 12:06:56;;;;;;;5.82;2.58;;;;;;;6.53;82.64;100829.41;5039550;28;20021;-87
2021/12/19 12:09:39;;;;;;;5.10;2.33;;;;;;;6.55;82.06;100798.06;5048579;28;20100;-87
2021/12/19 12:12:13;;;;;;;6.32;1.98;;;;;;;6.58;81.67;100808.38;5018656;28;20034;-87
2021/12/19 12:15:05;;;;;;;8.30;2.58;;;;;;;6.59;81.86;100840.47;5022043;28;20045;-86
2021/12/19 12:17:40;;;;;;;7.65;2.17;;;;;;;6.60;81.59;100772.69;5019995;28;20041;-87
2021/12/19 12:20:14;;;;;;;5.75;2.05;;;;;;;6.61;82.07;100797.81;5015642;28;20026;-88
2021/12/19 12:23:03;;;;;;;5.53;2.38;;;;;;;6.61;82.05;100795.22;5017515;28;20045;-88
2021/12/19 12:25:33;;;;;;;4.72;1.83;;;;;;;6.62;81.94;100796.91;5018853;28;20124;-85
2021/12/19 12:28:08;;;;;;;9.32;2.20;;;;;;;6.62;81.46;100798.66;5034293;28;20434;-86
2021/12/19 12:30:40;;;;;;;5.40;2.30;;;;;;;6.62;81.58;100794.28;5042132;28;20397;-87
2021/12/19 12:33:10;;;;;;;7.43;2.33;;;;;;;6.63;81.64;100793.38;5036831;28;20033;-87
2021/12/19 12:35:43;;;;;;;4.15;1.73;;;;;;;6.64;81.65;100796.84;5035755;28;20040;-88
2021/12/19 12:38:10;;;;;;;6.40;2.28;;;;;;;6.64;81.67;100799.47;5034739;28;20029;-87
2021/12/19 12:40:49;;;;;;;10.40;2.25;;;;;;;6.66;81.40;100797.63;5034094;28;20033;-88
2021/12/19 12:43:23;;;;;;;;;;;;;;;6.64;82.01;100796.84;5036615;28;20088;-86
2021/12/19 12:46:07;;;;;;;3.58;1.65;;;;;;;6.59;81.83;100793.56;5028751;28;19933;-87
2021/12/19 12:48:35;;;;;;;6.00;1.75;;;;;;;6.59;82.50;100775.34;5038170;28;20049;-87
2021/12/19 12:51:05;;;;;;;2.95;1.75;;;;;;;6.61;82.36;100787.41;5033924;28;20359;-88